sensor_id;sensor_type;location;lat;lon;timestamp;P1;durP1;ratioP1;P2;durP2;ratioP2
75050;SDS011;63628;47.656;11.310;2023-08-07T00:01:15;0.82;;;0.50;;
75050;SDS011;63628;47.656;11.310;2023-08-07T00:03:41;0.75;;;0.52;;
75050;SDS011;63628;47.656;11.310;2023-08-07T00:06:08;0.75;;;0.50;;
75050;SDS011;63628;47.656;11.310;2023-08-07T00:08:35;0.60;;;0.38;;
75050;SDS011;63628;47.656;11.310;2023-08-07T00:11:04;2.80;;;0.85;;
75050;SDS011;63628;47.656;11.310;2023-08-07T00:13:32;1.27;;;0.63;;
75050;SDS011;63628;47.656;11.310;2023-08-07T00:15:59;0.60;;;0.40;;
75050;SDS011;63628;47.656;11.310;2023-08-07T00:18:27;2.42;;;0.80;;
75050;SDS011;63628;47.656;11.310;2023-08-07T00:20:53;0.93;;;0.60;;
75050;SDS011;63628;47.656;11.310;2023-08-07T00:23:20;1.02;;;0.43;;
75050;SDS011;63628;47.656;11.310;2023-08-07T00:25:47;3.03;;;0.60;;
75050;SDS011;63628;47.656;11.310;2023-08-07T00:28:13;1.08;;;0.50;;
75050;SDS011;63628;47.656;11.310;2023-08-07T00:30:40;1.25;;;0.60;;
75050;SDS011;63628;47.656;11.310;2023-08-07T00:33:07;0.80;;;0.43;;
75050;SDS011;63628;47.656;11.310;2023-08-07T00:35:35;0.85;;;0.40;;
75050;SDS011;63628;47.656;11.310;2023-08-07T00:38:01;0.68;;;0.57;;
75050;SDS011;63628;47.656;11.310;2023-08-07T00:40:28;0.93;;;0.50;;
75050;SDS011;63628;47.656;11.310;2023-08-07T00:43:02;1.15;;;0.60;;
75050;SDS011;63628;47.656;11.310;2023-08-07T00:45:29;0.88;;;0.35;;
75050;SDS011;63628;47.656;11.310;2023-08-07T00:47:56;0.40;;;0.40;;
75050;SDS011;63628;47.656;11.310;2023-08-07T00:50:23;0.90;;;0.47;;
75050;SDS011;63628;47.656;11.310;2023-08-07T00:53:00;0.73;;;0.40;;
75050;SDS011;63628;47.656;11.310;2023-08-07T00:55:27;0.88;;;0.70;;
75050;SDS011;63628;47.656;11.310;2023-08-07T00:57:55;1.35;;;0.50;;
75050;SDS011;63628;47.656;11.310;2023-08-07T01:00:22;0.70;;;0.35;;
75050;SDS011;63628;47.656;11.310;2023-08-07T01:02:49;1.42;;;0.43;;
75050;SDS011;63628;47.656;11.310;2023-08-07T01:05:18;0.20;;;0.20;;
75050;SDS011;63628;47.656;11.310;2023-08-07T01:07:46;0.65;;;0.50;;
75050;SDS011;63628;47.656;11.310;2023-08-07T01:10:15;0.40;;;0.30;;
75050;SDS011;63628;47.656;11.310;2023-08-07T01:12:44;0.63;;;0.50;;
75050;SDS011;63628;47.656;11.310;2023-08-07T01:15:15;0.82;;;0.40;;
75050;SDS011;63628;47.656;11.310;2023-08-07T01:17:45;1.27;;;0.70;;
75050;SDS011;63628;47.656;11.310;2023-08-07T01:20:13;0.55;;;0.40;;
75050;SDS011;63628;47.656;11.310;2023-08-07T01:22:41;1.42;;;0.20;;
75050;SDS011;63628;47.656;11.310;2023-08-07T01:25:08;1.15;;;0.75;;
75050;SDS011;63628;47.656;11.310;2023-08-07T01:27:35;0.52;;;0.40;;
75050;SDS011;63628;47.656;11.310;2023-08-07T01:30:09;0.38;;;0.10;;
75050;SDS011;63628;47.656;11.310;2023-08-07T01:32:43;0.50;;;0.30;;
75050;SDS011;63628;47.656;11.310;2023-08-07T01:35:16;2.25;;;0.43;;
75050;SDS011;63628;47.656;11.310;2023-08-07T01:37:47;1.05;;;0.98;;
75050;SDS011;63628;47.656;11.310;2023-08-07T01:40:16;0.63;;;0.40;;
75050;SDS011;63628;47.656;11.310;2023-08-07T01:42:44;1.05;;;0.43;;
75050;SDS011;63628;47.656;11.310;2023-08-07T01:45:11;0.73;;;0.50;;
75050;SDS011;63628;47.656;11.310;2023-08-07T01:47:37;0.65;;;0.50;;
75050;SDS011;63628;47.656;11.310;2023-08-07T01:50:04;0.70;;;0.40;;
75050;SDS011;63628;47.656;11.310;2023-08-07T01:52:32;0.93;;;0.20;;
75050;SDS011;63628;47.656;11.310;2023-08-07T01:55:00;0.60;;;0.25;;
75050;SDS011;63628;47.656;11.310;2023-08-07T01:57:27;0.57;;;0.40;;
75050;SDS011;63628;47.656;11.310;2023-08-07T01:59:53;0.63;;;0.45;;
75050;SDS011;63628;47.656;11.310;2023-08-07T02:02:20;0.93;;;0.40;;
75050;SDS011;63628;47.656;11.310;2023-08-07T02:04:47;0.50;;;0.40;;
75050;SDS011;63628;47.656;11.310;2023-08-07T02:07:14;0.55;;;0.28;;
75050;SDS011;63628;47.656;11.310;2023-08-07T02:09:40;0.80;;;0.43;;
75050;SDS011;63628;47.656;11.310;2023-08-07T02:12:08;1.05;;;0.32;;
75050;SDS011;63628;47.656;11.310;2023-08-07T02:14:35;0.63;;;0.30;;
75050;SDS011;63628;47.656;11.310;2023-08-07T02:17:02;0.75;;;0.32;;
75050;SDS011;63628;47.656;11.310;2023-08-07T02:19:29;0.50;;;0.30;;
75050;SDS011;63628;47.656;11.310;2023-08-07T02:21:55;0.50;;;0.38;;
75050;SDS011;63628;47.656;11.310;2023-08-07T02:24:22;1.10;;;0.57;;
75050;SDS011;63628;47.656;11.310;2023-08-07T02:26:48;0.38;;;0.28;;
75050;SDS011;63628;47.656;11.310;2023-08-07T02:29:16;0.60;;;0.45;;
75050;SDS011;63628;47.656;11.310;2023-08-07T02:31:43;2.83;;;0.35;;
75050;SDS011;63628;47.656;11.310;2023-08-07T02:34:10;0.30;;;0.30;;
75050;SDS011;63628;47.656;11.310;2023-08-07T02:36:36;0.30;;;0.30;;
75050;SDS011;63628;47.656;11.310;2023-08-07T02:39:03;0.20;;;0.20;;
75050;SDS011;63628;47.656;11.310;2023-08-07T02:41:30;0.30;;;0.30;;
75050;SDS011;63628;47.656;11.310;2023-08-07T02:43:57;0.52;;;0.28;;
75050;SDS011;63628;47.656;11.310;2023-08-07T02:46:25;1.27;;;0.47;;
75050;SDS011;63628;47.656;11.310;2023-08-07T02:48:52;0.30;;;0.25;;
75050;SDS011;63628;47.656;11.310;2023-08-07T02:51:20;0.47;;;0.40;;
75050;SDS011;63628;47.656;11.310;2023-08-07T02:53:46;0.50;;;0.40;;
75050;SDS011;63628;47.656;11.310;2023-08-07T02:56:13;0.50;;;0.40;;
75050;SDS011;63628;47.656;11.310;2023-08-07T02:58:39;0.50;;;0.50;;
75050;SDS011;63628;47.656;11.310;2023-08-07T03:01:06;0.50;;;0.40;;
75050;SDS011;63628;47.656;11.310;2023-08-07T03:03:34;0.38;;;0.30;;
75050;SDS011;63628;47.656;11.310;2023-08-07T03:06:01;0.50;;;0.40;;
75050;SDS011;63628;47.656;11.310;2023-08-07T03:08:28;0.45;;;0.35;;
75050;SDS011;63628;47.656;11.310;2023-08-07T03:10:55;0.57;;;0.40;;
75050;SDS011;63628;47.656;11.310;2023-08-07T03:15:58;2.20;;;1.08;;
75050;SDS011;63628;47.656;11.310;2023-08-07T03:18:25;0.90;;;0.63;;
75050;SDS011;63628;47.656;11.310;2023-08-07T03:20:54;0.30;;;0.30;;
75050;SDS011;63628;47.656;11.310;2023-08-07T03:23:21;0.50;;;0.40;;
75050;SDS011;63628;47.656;11.310;2023-08-07T03:25:47;0.55;;;0.50;;
75050;SDS011;63628;47.656;11.310;2023-08-07T03:28:14;1.05;;;0.60;;
75050;SDS011;63628;47.656;11.310;2023-08-07T03:30:41;0.47;;;0.30;;
75050;SDS011;63628;47.656;11.310;2023-08-07T03:33:08;0.80;;;0.47;;
75050;SDS011;63628;47.656;11.310;2023-08-07T03:35:35;1.88;;;0.35;;
75050;SDS011;63628;47.656;11.310;2023-08-07T03:38:03;0.40;;;0.40;;
75050;SDS011;63628;47.656;11.310;2023-08-07T03:40:30;3.03;;;0.80;;
75050;SDS011;63628;47.656;11.310;2023-08-07T03:42:56;3.13;;;1.02;;
75050;SDS011;63628;47.656;11.310;2023-08-07T03:45:23;2.40;;;0.88;;
75050;SDS011;63628;47.656;11.310;2023-08-07T03:47:50;1.10;;;0.60;;
75050;SDS011;63628;47.656;11.310;2023-08-07T03:50:16;0.80;;;0.55;;
75050;SDS011;63628;47.656;11.310;2023-08-07T03:52:43;1.70;;;0.77;;
75050;SDS011;63628;47.656;11.310;2023-08-07T03:55:11;1.42;;;0.50;;
75050;SDS011;63628;47.656;11.310;2023-08-07T03:57:38;1.25;;;0.70;;
75050;SDS011;63628;47.656;11.310;2023-08-07T04:00:05;1.02;;;0.60;;
75050;SDS011;63628;47.656;11.310;2023-08-07T04:02:33;0.88;;;0.52;;
75050;SDS011;63628;47.656;11.310;2023-08-07T04:05:00;0.75;;;0.60;;
75050;SDS011;63628;47.656;11.310;2023-08-07T04:07:26;0.68;;;0.47;;
75050;SDS011;63628;47.656;11.310;2023-08-07T04:09:53;1.50;;;0.77;;
75050;SDS011;63628;47.656;11.310;2023-08-07T04:12:21;1.10;;;0.68;;
75050;SDS011;63628;47.656;11.310;2023-08-07T04:14:48;0.50;;;0.50;;
75050;SDS011;63628;47.656;11.310;2023-08-07T04:17:15;0.82;;;0.55;;
75050;SDS011;63628;47.656;11.310;2023-08-07T04:19:42;0.73;;;0.57;;
75050;SDS011;63628;47.656;11.310;2023-08-07T04:22:09;2.67;;;0.82;;
75050;SDS011;63628;47.656;11.310;2023-08-07T04:24:35;4.25;;;0.98;;
75050;SDS011;63628;47.656;11.310;2023-08-07T04:27:02;0.50;;;0.45;;
75050;SDS011;63628;47.656;11.310;2023-08-07T04:29:30;1.40;;;0.73;;
75050;SDS011;63628;47.656;11.310;2023-08-07T04:31:57;1.92;;;0.77;;
75050;SDS011;63628;47.656;11.310;2023-08-07T04:34:24;0.98;;;0.63;;
75050;SDS011;63628;47.656;11.310;2023-08-07T04:36:50;1.80;;;0.90;;
75050;SDS011;63628;47.656;11.310;2023-08-07T04:41:46;2.00;;;0.90;;
75050;SDS011;63628;47.656;11.310;2023-08-07T04:44:16;0.70;;;0.50;;
75050;SDS011;63628;47.656;11.310;2023-08-07T04:46:44;0.98;;;0.60;;
75050;SDS011;63628;47.656;11.310;2023-08-07T04:49:11;1.25;;;0.50;;
75050;SDS011;63628;47.656;11.310;2023-08-07T04:51:37;1.27;;;0.52;;
75050;SDS011;63628;47.656;11.310;2023-08-07T04:54:04;1.88;;;0.75;;
75050;SDS011;63628;47.656;11.310;2023-08-07T04:56:31;1.70;;;0.70;;
75050;SDS011;63628;47.656;11.310;2023-08-07T04:58:58;1.67;;;1.08;;
75050;SDS011;63628;47.656;11.310;2023-08-07T05:01:24;1.80;;;0.90;;
75050;SDS011;63628;47.656;11.310;2023-08-07T05:03:52;1.92;;;0.43;;
75050;SDS011;63628;47.656;11.310;2023-08-07T05:06:19;0.50;;;0.50;;
75050;SDS011;63628;47.656;11.310;2023-08-07T05:08:46;1.05;;;0.80;;
75050;SDS011;63628;47.656;11.310;2023-08-07T05:11:12;1.65;;;0.70;;
75050;SDS011;63628;47.656;11.310;2023-08-07T05:13:39;2.70;;;0.95;;
75050;SDS011;63628;47.656;11.310;2023-08-07T05:16:06;1.08;;;0.85;;
75050;SDS011;63628;47.656;11.310;2023-08-07T05:18:33;0.98;;;0.70;;
75050;SDS011;63628;47.656;11.310;2023-08-07T05:21:01;1.52;;;0.80;;
75050;SDS011;63628;47.656;11.310;2023-08-07T05:23:28;1.38;;;0.70;;
75050;SDS011;63628;47.656;11.310;2023-08-07T05:25:55;1.10;;;0.70;;
75050;SDS011;63628;47.656;11.310;2023-08-07T05:28:22;1.63;;;0.77;;
75050;SDS011;63628;47.656;11.310;2023-08-07T05:30:48;3.22;;;1.15;;
75050;SDS011;63628;47.656;11.310;2023-08-07T05:33:15;3.80;;;1.23;;
75050;SDS011;63628;47.656;11.310;2023-08-07T05:35:42;1.25;;;0.80;;
75050;SDS011;63628;47.656;11.310;2023-08-07T05:38:10;1.95;;;1.20;;
75050;SDS011;63628;47.656;11.310;2023-08-07T05:40:37;3.00;;;0.90;;
75050;SDS011;63628;47.656;11.310;2023-08-07T05:43:03;2.63;;;0.80;;
75050;SDS011;63628;47.656;11.310;2023-08-07T05:45:30;0.90;;;0.70;;
75050;SDS011;63628;47.656;11.310;2023-08-07T05:47:57;1.05;;;0.70;;
75050;SDS011;63628;47.656;11.310;2023-08-07T05:50:23;2.20;;;0.70;;
75050;SDS011;63628;47.656;11.310;2023-08-07T05:52:50;1.70;;;0.70;;
75050;SDS011;63628;47.656;11.310;2023-08-07T05:55:18;2.33;;;0.88;;
75050;SDS011;63628;47.656;11.310;2023-08-07T05:57:45;1.30;;;0.80;;
75050;SDS011;63628;47.656;11.310;2023-08-07T06:00:12;1.40;;;0.88;;
75050;SDS011;63628;47.656;11.310;2023-08-07T06:02:44;0.68;;;0.60;;
75050;SDS011;63628;47.656;11.310;2023-08-07T06:05:10;1.33;;;0.90;;
75050;SDS011;63628;47.656;11.310;2023-08-07T06:07:39;0.80;;;0.70;;
75050;SDS011;63628;47.656;11.310;2023-08-07T06:10:07;1.20;;;0.70;;
75050;SDS011;63628;47.656;11.310;2023-08-07T06:12:35;2.92;;;1.00;;
75050;SDS011;63628;47.656;11.310;2023-08-07T06:15:02;2.05;;;0.93;;
75050;SDS011;63628;47.656;11.310;2023-08-07T06:17:29;1.55;;;1.05;;
75050;SDS011;63628;47.656;11.310;2023-08-07T06:19:56;2.95;;;1.33;;
75050;SDS011;63628;47.656;11.310;2023-08-07T06:22:22;1.15;;;0.73;;
75050;SDS011;63628;47.656;11.310;2023-08-07T06:24:49;1.27;;;0.60;;
75050;SDS011;63628;47.656;11.310;2023-08-07T06:27:16;1.15;;;0.70;;
75050;SDS011;63628;47.656;11.310;2023-08-07T06:29:44;1.80;;;1.00;;
75050;SDS011;63628;47.656;11.310;2023-08-07T06:32:10;1.10;;;0.75;;
75050;SDS011;63628;47.656;11.310;2023-08-07T06:34:37;1.45;;;0.80;;
75050;SDS011;63628;47.656;11.310;2023-08-07T06:37:04;1.90;;;0.80;;
75050;SDS011;63628;47.656;11.310;2023-08-07T06:39:31;1.58;;;0.90;;
75050;SDS011;63628;47.656;11.310;2023-08-07T06:41:58;2.10;;;0.70;;
75050;SDS011;63628;47.656;11.310;2023-08-07T06:44:26;0.90;;;0.60;;
75050;SDS011;63628;47.656;11.310;2023-08-07T06:46:54;1.75;;;0.80;;
75050;SDS011;63628;47.656;11.310;2023-08-07T06:49:21;1.65;;;1.10;;
75050;SDS011;63628;47.656;11.310;2023-08-07T06:51:47;1.67;;;0.95;;
75050;SDS011;63628;47.656;11.310;2023-08-07T06:54:14;1.90;;;0.90;;
75050;SDS011;63628;47.656;11.310;2023-08-07T06:56:41;1.70;;;0.93;;
75050;SDS011;63628;47.656;11.310;2023-08-07T06:59:08;2.15;;;0.95;;
75050;SDS011;63628;47.656;11.310;2023-08-07T07:01:35;2.58;;;0.88;;
75050;SDS011;63628;47.656;11.310;2023-08-07T07:04:04;3.05;;;0.98;;
75050;SDS011;63628;47.656;11.310;2023-08-07T07:06:30;4.68;;;0.90;;
75050;SDS011;63628;47.656;11.310;2023-08-07T07:08:57;1.35;;;0.80;;
75050;SDS011;63628;47.656;11.310;2023-08-07T07:11:24;1.55;;;0.90;;
75050;SDS011;63628;47.656;11.310;2023-08-07T07:13:51;1.52;;;0.93;;
75050;SDS011;63628;47.656;11.310;2023-08-07T07:16:17;1.25;;;1.00;;
75050;SDS011;63628;47.656;11.310;2023-08-07T07:18:44;1.23;;;0.70;;
75050;SDS011;63628;47.656;11.310;2023-08-07T07:21:12;3.53;;;0.68;;
75050;SDS011;63628;47.656;11.310;2023-08-07T07:23:39;1.55;;;0.77;;
75050;SDS011;63628;47.656;11.310;2023-08-07T07:26:06;2.28;;;1.27;;
75050;SDS011;63628;47.656;11.310;2023-08-07T07:28:33;1.77;;;0.85;;
75050;SDS011;63628;47.656;11.310;2023-08-07T07:31:00;1.98;;;0.77;;
75050;SDS011;63628;47.656;11.310;2023-08-07T07:33:27;3.90;;;0.88;;
75050;SDS011;63628;47.656;11.310;2023-08-07T07:35:54;1.40;;;0.70;;
75050;SDS011;63628;47.656;11.310;2023-08-07T07:38:22;1.30;;;1.00;;
75050;SDS011;63628;47.656;11.310;2023-08-07T07:40:49;1.70;;;0.90;;
75050;SDS011;63628;47.656;11.310;2023-08-07T07:43:16;1.38;;;0.70;;
75050;SDS011;63628;47.656;11.310;2023-08-07T07:45:43;2.33;;;1.05;;
75050;SDS011;63628;47.656;11.310;2023-08-07T07:48:10;2.00;;;0.80;;
75050;SDS011;63628;47.656;11.310;2023-08-07T07:50:37;1.27;;;0.80;;
75050;SDS011;63628;47.656;11.310;2023-08-07T07:53:04;1.55;;;1.00;;
75050;SDS011;63628;47.656;11.310;2023-08-07T07:55:32;1.40;;;0.95;;
75050;SDS011;63628;47.656;11.310;2023-08-07T08:00:26;4.65;;;1.10;;
75050;SDS011;63628;47.656;11.310;2023-08-07T08:02:53;1.45;;;0.70;;
75050;SDS011;63628;47.656;11.310;2023-08-07T08:05:20;2.42;;;0.80;;
75050;SDS011;63628;47.656;11.310;2023-08-07T08:07:47;1.33;;;0.70;;
75050;SDS011;63628;47.656;11.310;2023-08-07T08:10:14;1.75;;;0.82;;
75050;SDS011;63628;47.656;11.310;2023-08-07T08:12:42;1.27;;;0.80;;
75050;SDS011;63628;47.656;11.310;2023-08-07T08:15:08;1.50;;;1.00;;
75050;SDS011;63628;47.656;11.310;2023-08-07T08:17:35;1.33;;;0.80;;
75050;SDS011;63628;47.656;11.310;2023-08-07T08:20:02;2.00;;;0.95;;
75050;SDS011;63628;47.656;11.310;2023-08-07T08:22:30;1.10;;;0.80;;
75050;SDS011;63628;47.656;11.310;2023-08-07T08:24:57;3.67;;;0.90;;
75050;SDS011;63628;47.656;11.310;2023-08-07T08:27:24;1.15;;;0.80;;
75050;SDS011;63628;47.656;11.310;2023-08-07T08:29:52;2.72;;;0.80;;
75050;SDS011;63628;47.656;11.310;2023-08-07T08:32:19;1.63;;;0.90;;
75050;SDS011;63628;47.656;11.310;2023-08-07T08:34:46;1.48;;;0.90;;
75050;SDS011;63628;47.656;11.310;2023-08-07T08:37:15;2.15;;;0.98;;
75050;SDS011;63628;47.656;11.310;2023-08-07T08:39:42;2.00;;;1.50;;
75050;SDS011;63628;47.656;11.310;2023-08-07T08:42:09;1.23;;;0.73;;
75050;SDS011;63628;47.656;11.310;2023-08-07T08:44:41;1.52;;;0.77;;
75050;SDS011;63628;47.656;11.310;2023-08-07T08:47:14;1.48;;;0.90;;
75050;SDS011;63628;47.656;11.310;2023-08-07T08:49:41;1.00;;;0.80;;
75050;SDS011;63628;47.656;11.310;2023-08-07T08:52:12;1.48;;;0.82;;
75050;SDS011;63628;47.656;11.310;2023-08-07T08:54:39;2.72;;;0.88;;
75050;SDS011;63628;47.656;11.310;2023-08-07T08:57:06;1.52;;;0.93;;
75050;SDS011;63628;47.656;11.310;2023-08-07T08:59:34;2.05;;;1.10;;
75050;SDS011;63628;47.656;11.310;2023-08-07T09:02:00;1.00;;;0.80;;
75050;SDS011;63628;47.656;11.310;2023-08-07T09:04:29;0.68;;;0.60;;
75050;SDS011;63628;47.656;11.310;2023-08-07T09:06:56;1.20;;;0.90;;
75050;SDS011;63628;47.656;11.310;2023-08-07T09:09:23;1.55;;;0.90;;
75050;SDS011;63628;47.656;11.310;2023-08-07T09:11:50;1.08;;;0.70;;
75050;SDS011;63628;47.656;11.310;2023-08-07T09:14:20;1.38;;;0.75;;
75050;SDS011;63628;47.656;11.310;2023-08-07T09:16:52;1.45;;;1.00;;
75050;SDS011;63628;47.656;11.310;2023-08-07T09:19:20;1.27;;;0.90;;
75050;SDS011;63628;47.656;11.310;2023-08-07T09:21:48;1.33;;;0.70;;
75050;SDS011;63628;47.656;11.310;2023-08-07T09:24:15;1.30;;;0.68;;
75050;SDS011;63628;47.656;11.310;2023-08-07T09:26:47;1.60;;;0.90;;
75050;SDS011;63628;47.656;11.310;2023-08-07T09:29:14;1.48;;;0.85;;
75050;SDS011;63628;47.656;11.310;2023-08-07T09:31:42;0.88;;;0.70;;
75050;SDS011;63628;47.656;11.310;2023-08-07T09:34:11;0.93;;;0.73;;
75050;SDS011;63628;47.656;11.310;2023-08-07T09:36:40;1.23;;;0.70;;
75050;SDS011;63628;47.656;11.310;2023-08-07T09:39:08;1.15;;;0.63;;
75050;SDS011;63628;47.656;11.310;2023-08-07T09:41:36;2.35;;;0.70;;
75050;SDS011;63628;47.656;11.310;2023-08-07T09:44:06;2.67;;;0.80;;
75050;SDS011;63628;47.656;11.310;2023-08-07T09:46:40;1.80;;;0.93;;
75050;SDS011;63628;47.656;11.310;2023-08-07T09:49:07;0.90;;;0.80;;
75050;SDS011;63628;47.656;11.310;2023-08-07T09:51:40;1.42;;;0.80;;
75050;SDS011;63628;47.656;11.310;2023-08-07T09:54:10;1.10;;;0.70;;
75050;SDS011;63628;47.656;11.310;2023-08-07T09:56:38;1.30;;;0.73;;
75050;SDS011;63628;47.656;11.310;2023-08-07T09:59:06;1.25;;;0.80;;
75050;SDS011;63628;47.656;11.310;2023-08-07T10:01:35;1.88;;;0.68;;
75050;SDS011;63628;47.656;11.310;2023-08-07T10:04:05;1.40;;;0.93;;
75050;SDS011;63628;47.656;11.310;2023-08-07T10:06:32;1.02;;;0.63;;
75050;SDS011;63628;47.656;11.310;2023-08-07T10:09:00;1.08;;;0.80;;
75050;SDS011;63628;47.656;11.310;2023-08-07T10:11:30;2.53;;;0.85;;
75050;SDS011;63628;47.656;11.310;2023-08-07T10:13:57;2.30;;;0.95;;
75050;SDS011;63628;47.656;11.310;2023-08-07T10:16:24;1.05;;;0.70;;
75050;SDS011;63628;47.656;11.310;2023-08-07T10:18:53;1.63;;;0.85;;
75050;SDS011;63628;47.656;11.310;2023-08-07T10:21:19;1.13;;;0.80;;
75050;SDS011;63628;47.656;11.310;2023-08-07T10:23:48;1.00;;;0.70;;
75050;SDS011;63628;47.656;11.310;2023-08-07T10:26:18;1.10;;;0.80;;
75050;SDS011;63628;47.656;11.310;2023-08-07T10:28:49;1.58;;;0.75;;
75050;SDS011;63628;47.656;11.310;2023-08-07T10:31:19;0.95;;;0.60;;
75050;SDS011;63628;47.656;11.310;2023-08-07T10:36:15;0.70;;;0.60;;
75050;SDS011;63628;47.656;11.310;2023-08-07T10:38:43;2.20;;;0.85;;
75050;SDS011;63628;47.656;11.310;2023-08-07T10:41:10;0.75;;;0.63;;
75050;SDS011;63628;47.656;11.310;2023-08-07T10:43:38;1.35;;;0.80;;
75050;SDS011;63628;47.656;11.310;2023-08-07T10:46:10;0.68;;;0.45;;
75050;SDS011;63628;47.656;11.310;2023-08-07T10:48:38;1.10;;;0.63;;
75050;SDS011;63628;47.656;11.310;2023-08-07T10:51:06;1.02;;;0.73;;
75050;SDS011;63628;47.656;11.310;2023-08-07T10:53:34;0.98;;;0.65;;
75050;SDS011;63628;47.656;11.310;2023-08-07T10:56:02;1.05;;;0.65;;
75050;SDS011;63628;47.656;11.310;2023-08-07T10:58:31;2.22;;;0.90;;
75050;SDS011;63628;47.656;11.310;2023-08-07T11:01:16;1.17;;;0.80;;
75050;SDS011;63628;47.656;11.310;2023-08-07T11:03:46;1.13;;;0.70;;
75050;SDS011;63628;47.656;11.310;2023-08-07T11:08:41;1.38;;;0.50;;
75050;SDS011;63628;47.656;11.310;2023-08-07T11:11:09;3.05;;;0.60;;
75050;SDS011;63628;47.656;11.310;2023-08-07T11:13:35;1.85;;;0.70;;
75050;SDS011;63628;47.656;11.310;2023-08-07T11:16:02;1.33;;;0.50;;
75050;SDS011;63628;47.656;11.310;2023-08-07T11:18:31;2.00;;;0.68;;
75050;SDS011;63628;47.656;11.310;2023-08-07T11:20:59;0.85;;;0.60;;
75050;SDS011;63628;47.656;11.310;2023-08-07T11:23:27;2.23;;;0.70;;
75050;SDS011;63628;47.656;11.310;2023-08-07T11:25:54;2.83;;;0.80;;
75050;SDS011;63628;47.656;11.310;2023-08-07T11:28:22;1.27;;;0.50;;
75050;SDS011;63628;47.656;11.310;2023-08-07T11:30:50;1.20;;;0.43;;
75050;SDS011;63628;47.656;11.310;2023-08-07T11:33:17;0.60;;;0.30;;
75050;SDS011;63628;47.656;11.310;2023-08-07T11:35:46;0.65;;;0.55;;
75050;SDS011;63628;47.656;11.310;2023-08-07T11:38:15;0.45;;;0.43;;
75050;SDS011;63628;47.656;11.310;2023-08-07T11:40:56;0.77;;;0.47;;
75050;SDS011;63628;47.656;11.310;2023-08-07T11:43:23;1.20;;;0.38;;
75050;SDS011;63628;47.656;11.310;2023-08-07T11:45:50;0.50;;;0.45;;
75050;SDS011;63628;47.656;11.310;2023-08-07T11:48:16;2.17;;;0.60;;
75050;SDS011;63628;47.656;11.310;2023-08-07T11:50:43;0.70;;;0.70;;
75050;SDS011;63628;47.656;11.310;2023-08-07T11:53:11;0.80;;;0.70;;
75050;SDS011;63628;47.656;11.310;2023-08-07T11:55:45;1.08;;;0.40;;
75050;SDS011;63628;47.656;11.310;2023-08-07T11:58:13;1.13;;;0.57;;
75050;SDS011;63628;47.656;11.310;2023-08-07T12:00:41;1.15;;;0.77;;
75050;SDS011;63628;47.656;11.310;2023-08-07T12:03:22;1.30;;;0.80;;
75050;SDS011;63628;47.656;11.310;2023-08-07T12:05:51;2.47;;;0.80;;
75050;SDS011;63628;47.656;11.310;2023-08-07T12:08:19;0.82;;;0.50;;
75050;SDS011;63628;47.656;11.310;2023-08-07T12:10:48;1.02;;;0.70;;
75050;SDS011;63628;47.656;11.310;2023-08-07T12:13:16;0.50;;;0.40;;
75050;SDS011;63628;47.656;11.310;2023-08-07T12:15:46;0.70;;;0.50;;
75050;SDS011;63628;47.656;11.310;2023-08-07T12:18:13;0.40;;;0.32;;
75050;SDS011;63628;47.656;11.310;2023-08-07T12:20:41;0.80;;;0.70;;
75050;SDS011;63628;47.656;11.310;2023-08-07T12:23:11;1.58;;;0.88;;
75050;SDS011;63628;47.656;11.310;2023-08-07T12:25:41;0.50;;;0.50;;
75050;SDS011;63628;47.656;11.310;2023-08-07T12:28:08;1.75;;;0.47;;
75050;SDS011;63628;47.656;11.310;2023-08-07T12:30:34;0.63;;;0.40;;
75050;SDS011;63628;47.656;11.310;2023-08-07T12:33:02;1.15;;;0.70;;
75050;SDS011;63628;47.656;11.310;2023-08-07T12:35:30;0.85;;;0.35;;
75050;SDS011;63628;47.656;11.310;2023-08-07T12:37:57;0.85;;;0.50;;
75050;SDS011;63628;47.656;11.310;2023-08-07T12:40:24;0.77;;;0.60;;
75050;SDS011;63628;47.656;11.310;2023-08-07T12:42:55;0.60;;;0.55;;
75050;SDS011;63628;47.656;11.310;2023-08-07T12:45:22;0.77;;;0.57;;
75050;SDS011;63628;47.656;11.310;2023-08-07T12:48:09;1.02;;;0.60;;
75050;SDS011;63628;47.656;11.310;2023-08-07T12:50:35;0.52;;;0.40;;
75050;SDS011;63628;47.656;11.310;2023-08-07T12:53:02;1.30;;;0.40;;
75050;SDS011;63628;47.656;11.310;2023-08-07T12:55:29;0.28;;;0.28;;
75050;SDS011;63628;47.656;11.310;2023-08-07T12:57:58;0.93;;;0.40;;
75050;SDS011;63628;47.656;11.310;2023-08-07T13:00:25;0.80;;;0.50;;
75050;SDS011;63628;47.656;11.310;2023-08-07T13:02:53;0.80;;;0.50;;
75050;SDS011;63628;47.656;11.310;2023-08-07T13:05:21;1.63;;;0.50;;
75050;SDS011;63628;47.656;11.310;2023-08-07T13:07:48;0.95;;;0.45;;
75050;SDS011;63628;47.656;11.310;2023-08-07T13:10:16;0.75;;;0.60;;
75050;SDS011;63628;47.656;11.310;2023-08-07T13:12:43;0.52;;;0.47;;
75050;SDS011;63628;47.656;11.310;2023-08-07T13:15:15;0.73;;;0.40;;
75050;SDS011;63628;47.656;11.310;2023-08-07T13:17:42;0.90;;;0.43;;
75050;SDS011;63628;47.656;11.310;2023-08-07T13:20:10;0.68;;;0.60;;
75050;SDS011;63628;47.656;11.310;2023-08-07T13:22:39;0.73;;;0.40;;
75050;SDS011;63628;47.656;11.310;2023-08-07T13:25:08;1.05;;;0.40;;
75050;SDS011;63628;47.656;11.310;2023-08-07T13:27:35;0.50;;;0.40;;
75050;SDS011;63628;47.656;11.310;2023-08-07T13:30:02;0.82;;;0.57;;
75050;SDS011;63628;47.656;11.310;2023-08-07T13:32:31;1.02;;;0.50;;
75050;SDS011;63628;47.656;11.310;2023-08-07T13:34:58;0.50;;;0.40;;
75050;SDS011;63628;47.656;11.310;2023-08-07T13:37:25;0.68;;;0.30;;
75050;SDS011;63628;47.656;11.310;2023-08-07T13:39:52;0.43;;;0.40;;
75050;SDS011;63628;47.656;11.310;2023-08-07T13:42:23;1.38;;;0.60;;
75050;SDS011;63628;47.656;11.310;2023-08-07T13:44:50;1.38;;;0.60;;
75050;SDS011;63628;47.656;11.310;2023-08-07T13:47:17;1.23;;;0.73;;
75050;SDS011;63628;47.656;11.310;2023-08-07T13:49:45;0.28;;;0.28;;
75050;SDS011;63628;47.656;11.310;2023-08-07T13:52:12;0.50;;;0.50;;
75050;SDS011;63628;47.656;11.310;2023-08-07T13:54:39;0.90;;;0.50;;
75050;SDS011;63628;47.656;11.310;2023-08-07T13:57:06;0.70;;;0.50;;
75050;SDS011;63628;47.656;11.310;2023-08-07T13:59:33;1.05;;;0.40;;
75050;SDS011;63628;47.656;11.310;2023-08-07T14:01:59;1.35;;;0.65;;
75050;SDS011;63628;47.656;11.310;2023-08-07T14:04:26;0.47;;;0.47;;
75050;SDS011;63628;47.656;11.310;2023-08-07T14:06:54;1.92;;;0.95;;
75050;SDS011;63628;47.656;11.310;2023-08-07T14:09:21;0.93;;;0.50;;
75050;SDS011;63628;47.656;11.310;2023-08-07T14:11:48;0.80;;;0.60;;
75050;SDS011;63628;47.656;11.310;2023-08-07T14:14:15;0.55;;;0.50;;
75050;SDS011;63628;47.656;11.310;2023-08-07T14:16:42;0.85;;;0.52;;
75050;SDS011;63628;47.656;11.310;2023-08-07T14:19:09;0.22;;;0.22;;
75050;SDS011;63628;47.656;11.310;2023-08-07T14:21:36;0.85;;;0.50;;
75050;SDS011;63628;47.656;11.310;2023-08-07T14:24:06;0.73;;;0.50;;
75050;SDS011;63628;47.656;11.310;2023-08-07T14:26:33;1.58;;;0.57;;
75050;SDS011;63628;47.656;11.310;2023-08-07T14:29:00;0.47;;;0.47;;
75050;SDS011;63628;47.656;11.310;2023-08-07T14:31:26;1.30;;;0.80;;
75050;SDS011;63628;47.656;11.310;2023-08-07T14:33:53;0.63;;;0.40;;
75050;SDS011;63628;47.656;11.310;2023-08-07T14:36:20;0.60;;;0.50;;
75050;SDS011;63628;47.656;11.310;2023-08-07T14:38:47;0.80;;;0.60;;
75050;SDS011;63628;47.656;11.310;2023-08-07T14:41:15;1.08;;;0.70;;
75050;SDS011;63628;47.656;11.310;2023-08-07T14:43:41;0.43;;;0.38;;
75050;SDS011;63628;47.656;11.310;2023-08-07T14:46:08;0.40;;;0.40;;
75050;SDS011;63628;47.656;11.310;2023-08-07T14:48:35;0.40;;;0.35;;